KAR3547 UUEE-VVCR
Flight info
| Callsign | KAR3547 |
|---|---|
| Flight time | N/A |
| Altitude | 35000 |
| Route | TOGMO3J TOGMO M56 AKOBO/K0883F370 M56 DENUD M161 MILSO M875 AMDAR/N0477F370 M875 TAPIS L509 LAJAK/N0473F390 G796 HANGU L509 SULOM A466 ASARI L509 GGC R460 CEA L507 BGO/N0481F410 G473 UBL B202 BOMPA/K0893F410 B202 PLK G474 PCA/K0896F400 W2 KAMGO KAMGO1A |
| Aircraft | B772/H-SDE2E3FGHIJ5LORVWXY/LB1D1 |
Departure
| Time | N/A |
|---|---|
| Airport | Sheremetyevo International Airport (UUEE) |
Arrival
| Time | 2026-04-18 06:43 |
|---|---|
| Airport | Cam Ranh International Airport / Cam Ranh Air Base (VVCR) |
| Time | Latitude | Longitude | Altitude | Speed | Heading |
|---|---|---|---|---|---|
| 2026-04-18 03:57 | 19.69959 | 93.07685 | 36912 ft | 439 kts | 126° |
| 2026-04-18 03:58 | 19.66423 | 93.12952 | 36912 ft | 439 kts | 126° |
| 2026-04-18 03:58 | 19.62855 | 93.18264 | 36912 ft | 439 kts | 126° |
| 2026-04-18 03:59 | 19.59335 | 93.23499 | 36912 ft | 439 kts | 126° |
| 2026-04-18 03:59 | 19.55775 | 93.28788 | 36912 ft | 439 kts | 126° |
| 2026-04-18 04:00 | 19.52232 | 93.34047 | 36911 ft | 439 kts | 126° |
| 2026-04-18 04:00 | 19.48674 | 93.39323 | 36907 ft | 439 kts | 126° |
| 2026-04-18 04:01 | 19.45117 | 93.44594 | 36895 ft | 439 kts | 126° |
| 2026-04-18 04:01 | 19.41556 | 93.49864 | 36883 ft | 439 kts | 126° |
| 2026-04-18 04:02 | 19.37998 | 93.55128 | 36871 ft | 439 kts | 126° |
| 2026-04-18 04:02 | 19.34436 | 93.60392 | 36861 ft | 439 kts | 126° |
| 2026-04-18 04:02 | 19.32671 | 93.62999 | 37168 ft | 433 kts | 126° |
| 2026-04-18 04:03 | 19.30903 | 93.65609 | 37242 ft | 440 kts | 126° |
| 2026-04-18 04:03 | 19.27332 | 93.70877 | 37235 ft | 440 kts | 126° |
| 2026-04-18 04:04 | 19.23768 | 93.76130 | 37235 ft | 439 kts | 126° |
| 2026-04-18 04:04 | 19.20194 | 93.81394 | 37235 ft | 439 kts | 126° |
| 2026-04-18 04:05 | 19.16631 | 93.86637 | 37235 ft | 439 kts | 126° |
| 2026-04-18 04:05 | 19.13075 | 93.91866 | 37235 ft | 439 kts | 126° |
| 2026-04-18 04:06 | 19.09486 | 93.97137 | 37235 ft | 439 kts | 126° |
| 2026-04-18 04:06 | 19.05926 | 94.02363 | 37235 ft | 439 kts | 126° |
| 2026-04-18 04:07 | 19.02356 | 94.07597 | 37235 ft | 439 kts | 126° |
| 2026-04-18 04:07 | 18.98789 | 94.12821 | 37234 ft | 438 kts | 126° |
| 2026-04-18 04:08 | 18.95214 | 94.18056 | 37234 ft | 438 kts | 126° |
| 2026-04-18 04:08 | 18.91638 | 94.23287 | 37234 ft | 438 kts | 126° |
| 2026-04-18 04:09 | 18.88088 | 94.28476 | 37236 ft | 438 kts | 125° |
| 2026-04-18 04:09 | 18.84497 | 94.33723 | 37235 ft | 438 kts | 125° |
| 2026-04-18 04:10 | 18.80938 | 94.38917 | 37235 ft | 438 kts | 125° |
| 2026-04-18 04:10 | 18.77373 | 94.44115 | 37235 ft | 438 kts | 125° |
| 2026-04-18 04:11 | 18.73776 | 94.49355 | 37235 ft | 438 kts | 125° |
| 2026-04-18 04:11 | 18.70191 | 94.54573 | 37235 ft | 438 kts | 125° |
| 2026-04-18 04:12 | 18.66631 | 94.59750 | 37235 ft | 438 kts | 125° |
| 2026-04-18 04:12 | 18.63041 | 94.64968 | 37234 ft | 438 kts | 125° |
| 2026-04-18 04:13 | 18.59459 | 94.70168 | 37237 ft | 438 kts | 126° |
| 2026-04-18 04:13 | 18.55946 | 94.75417 | 37237 ft | 438 kts | 124° |
| 2026-04-18 04:14 | 18.52473 | 94.80705 | 37237 ft | 438 kts | 124° |
| 2026-04-18 04:14 | 18.49008 | 94.85981 | 37236 ft | 436 kts | 124° |
| 2026-04-18 04:15 | 18.45548 | 94.91243 | 37236 ft | 435 kts | 124° |
| 2026-04-18 04:15 | 18.42114 | 94.96463 | 37236 ft | 434 kts | 124° |
| 2026-04-18 04:16 | 18.38685 | 95.01672 | 37236 ft | 432 kts | 124° |
| 2026-04-18 04:16 | 18.35272 | 95.06852 | 37235 ft | 431 kts | 124° |
| 2026-04-18 04:17 | 18.31835 | 95.12064 | 37235 ft | 432 kts | 124° |
| 2026-04-18 04:17 | 18.28330 | 95.17189 | 37235 ft | 432 kts | 126° |
| 2026-04-18 04:18 | 18.24727 | 95.22272 | 36884 ft | 432 kts | 126° |
| 2026-04-18 04:18 | 18.21155 | 95.27309 | 36910 ft | 430 kts | 126° |
| 2026-04-18 04:19 | 18.17549 | 95.32390 | 36910 ft | 432 kts | 126° |
| 2026-04-18 04:19 | 18.13956 | 95.37449 | 36910 ft | 432 kts | 126° |
| 2026-04-18 04:20 | 18.10375 | 95.42485 | 36909 ft | 432 kts | 126° |
| 2026-04-18 04:20 | 18.06777 | 95.47543 | 36909 ft | 431 kts | 126° |
| 2026-04-18 04:21 | 18.03170 | 95.52609 | 36909 ft | 432 kts | 126° |
| 2026-04-18 04:21 | 17.99592 | 95.57630 | 36908 ft | 431 kts | 126° |
| 2026-04-18 04:22 | 17.95985 | 95.62689 | 36908 ft | 432 kts | 126° |
| 2026-04-18 04:22 | 17.92388 | 95.67729 | 36912 ft | 432 kts | 126° |
| 2026-04-18 04:23 | 17.88773 | 95.72789 | 36913 ft | 432 kts | 126° |
| 2026-04-18 04:23 | 17.85179 | 95.77818 | 36913 ft | 432 kts | 126° |
| 2026-04-18 04:24 | 17.81573 | 95.82860 | 36913 ft | 432 kts | 126° |
| 2026-04-18 04:24 | 17.77971 | 95.87891 | 36913 ft | 431 kts | 126° |
| 2026-04-18 04:25 | 17.74345 | 95.92953 | 36912 ft | 432 kts | 126° |
| 2026-04-18 04:25 | 17.70756 | 95.97959 | 36912 ft | 432 kts | 126° |
| 2026-04-18 04:26 | 17.67133 | 96.03009 | 36912 ft | 432 kts | 126° |
| 2026-04-18 04:26 | 17.63521 | 96.08039 | 36912 ft | 432 kts | 126° |
| 2026-04-18 04:27 | 17.59901 | 96.13077 | 36911 ft | 432 kts | 126° |
| 2026-04-18 04:27 | 17.56288 | 96.18102 | 36916 ft | 432 kts | 126° |
| 2026-04-18 04:28 | 17.52680 | 96.23116 | 36921 ft | 432 kts | 126° |
| 2026-04-18 04:28 | 17.49067 | 96.28132 | 36928 ft | 431 kts | 126° |
| 2026-04-18 04:29 | 17.45437 | 96.33169 | 36935 ft | 432 kts | 126° |
| 2026-04-18 04:29 | 17.41836 | 96.38161 | 36937 ft | 432 kts | 126° |
| 2026-04-18 04:30 | 17.38201 | 96.43198 | 36937 ft | 432 kts | 126° |
| 2026-04-18 04:30 | 17.34583 | 96.48206 | 36937 ft | 432 kts | 126° |
| 2026-04-18 04:31 | 17.31610 | 96.53651 | 36941 ft | 431 kts | 109° |
| 2026-04-18 04:31 | 17.30101 | 96.59719 | 36936 ft | 432 kts | 104° |
| 2026-04-18 04:32 | 17.28681 | 96.65799 | 36937 ft | 432 kts | 104° |
| 2026-04-18 04:32 | 17.27267 | 96.71913 | 36939 ft | 432 kts | 104° |
| 2026-04-18 04:33 | 17.25853 | 96.78040 | 36912 ft | 432 kts | 104° |
| 2026-04-18 04:33 | 17.24446 | 96.84126 | 36912 ft | 431 kts | 104° |
| 2026-04-18 04:34 | 17.23032 | 96.90235 | 36912 ft | 432 kts | 104° |
| 2026-04-18 04:34 | 17.21611 | 96.96365 | 36911 ft | 432 kts | 104° |
| 2026-04-18 04:35 | 17.20202 | 97.02435 | 36911 ft | 431 kts | 104° |
| 2026-04-18 04:35 | 17.18782 | 97.08545 | 36911 ft | 430 kts | 104° |
| 2026-04-18 04:36 | 17.17366 | 97.14624 | 36910 ft | 429 kts | 104° |
| 2026-04-18 04:36 | 17.15961 | 97.20651 | 36910 ft | 428 kts | 104° |
| 2026-04-18 04:37 | 17.14543 | 97.26726 | 36916 ft | 428 kts | 104° |
| 2026-04-18 04:37 | 17.13135 | 97.32754 | 36922 ft | 428 kts | 104° |
| 2026-04-18 04:38 | 17.11720 | 97.38796 | 36928 ft | 428 kts | 104° |
| 2026-04-18 04:38 | 17.10293 | 97.44878 | 36935 ft | 428 kts | 104° |
| 2026-04-18 04:39 | 17.08882 | 97.50888 | 36935 ft | 428 kts | 104° |
| 2026-04-18 04:39 | 17.07459 | 97.56941 | 36935 ft | 428 kts | 103° |
| 2026-04-18 04:40 | 17.06033 | 97.63000 | 36935 ft | 428 kts | 103° |
| 2026-04-18 04:40 | 17.04607 | 97.69045 | 36941 ft | 428 kts | 104° |
| 2026-04-18 04:41 | 17.03191 | 97.75043 | 36940 ft | 428 kts | 104° |
| 2026-04-18 04:41 | 17.01764 | 97.81075 | 36939 ft | 427 kts | 103° |
| 2026-04-18 04:42 | 17.00334 | 97.87114 | 36939 ft | 427 kts | 104° |
| 2026-04-18 04:42 | 16.98707 | 97.93110 | 36939 ft | 427 kts | 105° |
| 2026-04-18 04:43 | 16.97055 | 97.99091 | 36939 ft | 427 kts | 105° |
| 2026-04-18 04:43 | 16.95404 | 98.05051 | 36939 ft | 427 kts | 105° |
| 2026-04-18 04:44 | 16.93757 | 98.10992 | 36938 ft | 427 kts | 105° |
| 2026-04-18 04:44 | 16.92093 | 98.16987 | 36938 ft | 427 kts | 105° |
| 2026-04-18 04:45 | 16.90440 | 98.22930 | 36937 ft | 427 kts | 105° |
| 2026-04-18 04:45 | 16.88784 | 98.28877 | 36937 ft | 427 kts | 105° |
| 2026-04-18 04:46 | 16.87116 | 98.34859 | 36937 ft | 427 kts | 105° |
| 2026-04-18 04:46 | 16.85462 | 98.40787 | 36936 ft | 427 kts | 105° |
| 2026-04-18 04:47 | 16.83786 | 98.46785 | 36936 ft | 427 kts | 105° |
| 2026-04-18 04:47 | 16.82911 | 98.52869 | 36944 ft | 426 kts | 91° |
| 2026-04-18 04:48 | 16.82710 | 98.59048 | 36935 ft | 427 kts | 91° |
| 2026-04-18 04:48 | 16.82522 | 98.65261 | 36935 ft | 426 kts | 92° |
| 2026-04-18 04:49 | 16.82337 | 98.71440 | 36940 ft | 427 kts | 92° |
| 2026-04-18 04:49 | 16.82151 | 98.77646 | 36940 ft | 426 kts | 92° |
| 2026-04-18 04:50 | 16.81964 | 98.83825 | 36940 ft | 426 kts | 92° |
| 2026-04-18 04:50 | 16.81775 | 98.90012 | 36939 ft | 427 kts | 92° |
| 2026-04-18 04:51 | 16.81583 | 98.96225 | 36939 ft | 428 kts | 92° |
| 2026-04-18 04:51 | 16.81390 | 99.02430 | 36939 ft | 429 kts | 92° |
| 2026-04-18 04:52 | 16.81194 | 99.08650 | 36938 ft | 430 kts | 92° |
| 2026-04-18 04:52 | 16.80996 | 99.14909 | 36936 ft | 430 kts | 91° |
| 2026-04-18 04:53 | 16.80797 | 99.21109 | 36921 ft | 430 kts | 91° |
| 2026-04-18 04:53 | 16.80594 | 99.27380 | 36907 ft | 430 kts | 91° |
| 2026-04-18 04:54 | 16.80391 | 99.33622 | 36892 ft | 430 kts | 91° |
| 2026-04-18 04:54 | 16.80184 | 99.39880 | 36883 ft | 430 kts | 91° |
| 2026-04-18 04:55 | 16.79977 | 99.46124 | 36882 ft | 430 kts | 92° |
| 2026-04-18 04:55 | 16.79768 | 99.52354 | 36882 ft | 430 kts | 91° |
| 2026-04-18 04:56 | 16.79450 | 99.61708 | 36882 ft | 430 kts | 92° |
| 2026-04-18 04:56 | 16.79236 | 99.67944 | 36887 ft | 430 kts | 92° |
| 2026-04-18 04:57 | 16.79021 | 99.74175 | 36886 ft | 430 kts | 92° |
| 2026-04-18 04:57 | 16.78802 | 99.80446 | 36886 ft | 430 kts | 92° |
| 2026-04-18 04:58 | 16.78582 | 99.86699 | 36885 ft | 430 kts | 92° |
| 2026-04-18 04:58 | 16.78360 | 99.92941 | 36885 ft | 430 kts | 92° |
| 2026-04-18 04:59 | 16.78136 | 99.99184 | 36885 ft | 430 kts | 92° |
| 2026-04-18 04:59 | 16.77911 | 100.05414 | 36885 ft | 430 kts | 92° |
| 2026-04-18 05:00 | 16.77684 | 100.11636 | 36884 ft | 430 kts | 92° |
| 2026-04-18 05:00 | 16.77454 | 100.17901 | 36884 ft | 430 kts | 92° |
| 2026-04-18 05:01 | 16.77224 | 100.24126 | 36884 ft | 430 kts | 92° |
| 2026-04-18 05:01 | 16.76956 | 100.30389 | 36882 ft | 430 kts | 94° |
| 2026-04-18 05:02 | 16.76471 | 100.36633 | 36883 ft | 430 kts | 94° |
| 2026-04-18 05:02 | 16.75997 | 100.42861 | 36883 ft | 430 kts | 94° |
| 2026-04-18 05:03 | 16.75523 | 100.49075 | 36934 ft | 429 kts | 94° |
| 2026-04-18 05:03 | 16.75046 | 100.55308 | 36962 ft | 431 kts | 94° |
| 2026-04-18 05:04 | 16.74567 | 100.61532 | 36963 ft | 430 kts | 94° |
| 2026-04-18 05:04 | 16.74083 | 100.67802 | 36968 ft | 430 kts | 94° |
| 2026-04-18 05:05 | 16.73601 | 100.74028 | 36967 ft | 430 kts | 94° |
| 2026-04-18 05:05 | 16.73118 | 100.80248 | 36967 ft | 430 kts | 94° |
| 2026-04-18 05:06 | 16.72629 | 100.86486 | 36967 ft | 431 kts | 94° |
| 2026-04-18 05:06 | 16.72142 | 100.92699 | 36966 ft | 432 kts | 94° |
| 2026-04-18 05:07 | 16.71649 | 100.98962 | 36966 ft | 432 kts | 94° |
| 2026-04-18 05:07 | 16.71155 | 101.05213 | 36965 ft | 433 kts | 94° |
| 2026-04-18 05:08 | 16.70658 | 101.11498 | 36965 ft | 433 kts | 94° |
| 2026-04-18 05:08 | 16.70160 | 101.17756 | 36965 ft | 433 kts | 94° |
| 2026-04-18 05:09 | 16.69660 | 101.24015 | 36964 ft | 433 kts | 94° |
| 2026-04-18 05:09 | 16.69155 | 101.30308 | 36964 ft | 433 kts | 94° |
| 2026-04-18 05:10 | 16.68652 | 101.36557 | 36964 ft | 433 kts | 94° |
| 2026-04-18 05:10 | 16.68144 | 101.42841 | 36964 ft | 433 kts | 94° |
| 2026-04-18 05:11 | 16.67637 | 101.49086 | 36964 ft | 433 kts | 94° |
| 2026-04-18 05:11 | 16.67127 | 101.55351 | 36963 ft | 433 kts | 94° |
| 2026-04-18 05:12 | 16.66614 | 101.61620 | 36963 ft | 433 kts | 94° |
| 2026-04-18 05:12 | 16.66098 | 101.67908 | 36967 ft | 433 kts | 94° |
| 2026-04-18 05:13 | 16.65583 | 101.74161 | 36967 ft | 433 kts | 94° |
| 2026-04-18 05:13 | 16.65066 | 101.80430 | 36967 ft | 433 kts | 94° |
| 2026-04-18 05:14 | 16.64542 | 101.86739 | 36966 ft | 433 kts | 94° |
| 2026-04-18 05:14 | 16.64020 | 101.93010 | 36966 ft | 433 kts | 94° |
| 2026-04-18 05:15 | 16.63082 | 101.99193 | 36965 ft | 435 kts | 106° |
| 2026-04-18 05:15 | 16.60594 | 102.04987 | 36967 ft | 437 kts | 114° |
| 2026-04-18 05:16 | 16.57936 | 102.10679 | 36965 ft | 437 kts | 114° |
| 2026-04-18 05:16 | 16.55256 | 102.16350 | 36965 ft | 437 kts | 115° |
| 2026-04-18 05:17 | 16.52569 | 102.22012 | 36965 ft | 437 kts | 115° |
| 2026-04-18 05:17 | 16.49863 | 102.27711 | 36965 ft | 437 kts | 115° |
| 2026-04-18 05:18 | 16.47176 | 102.33364 | 36965 ft | 437 kts | 115° |
| 2026-04-18 05:18 | 16.44460 | 102.39072 | 36910 ft | 437 kts | 115° |
| 2026-04-18 05:19 | 16.41765 | 102.44733 | 36910 ft | 437 kts | 115° |
| 2026-04-18 05:19 | 16.39071 | 102.50384 | 36909 ft | 437 kts | 115° |
| 2026-04-18 05:20 | 16.36359 | 102.56073 | 36909 ft | 437 kts | 115° |
| 2026-04-18 05:20 | 16.33650 | 102.61746 | 36909 ft | 437 kts | 115° |
| 2026-04-18 05:21 | 16.30954 | 102.67388 | 36913 ft | 437 kts | 115° |
| 2026-04-18 05:21 | 16.28239 | 102.73066 | 36913 ft | 437 kts | 115° |
| 2026-04-18 05:22 | 16.25529 | 102.78728 | 36913 ft | 437 kts | 115° |
| 2026-04-18 05:22 | 16.22831 | 102.84362 | 36913 ft | 437 kts | 115° |
| 2026-04-18 05:23 | 16.20118 | 102.90022 | 36912 ft | 437 kts | 115° |
| 2026-04-18 05:23 | 16.17409 | 102.95671 | 36913 ft | 437 kts | 115° |
| 2026-04-18 05:24 | 16.14683 | 103.01345 | 36912 ft | 437 kts | 115° |
| 2026-04-18 05:24 | 16.11971 | 103.06989 | 36910 ft | 437 kts | 115° |
| 2026-04-18 05:25 | 16.09250 | 103.12645 | 36905 ft | 436 kts | 115° |
| 2026-04-18 05:25 | 16.06541 | 103.18276 | 36899 ft | 437 kts | 115° |
| 2026-04-18 05:26 | 16.03820 | 103.23923 | 36892 ft | 437 kts | 115° |
| 2026-04-18 05:26 | 16.01096 | 103.29575 | 36886 ft | 436 kts | 115° |
| 2026-04-18 05:27 | 15.98380 | 103.35203 | 36885 ft | 437 kts | 114° |
| 2026-04-18 05:27 | 15.95646 | 103.40866 | 36885 ft | 436 kts | 114° |
| 2026-04-18 05:28 | 15.92923 | 103.46500 | 36884 ft | 437 kts | 115° |
| 2026-04-18 05:28 | 15.90195 | 103.52140 | 36884 ft | 436 kts | 115° |
| 2026-04-18 05:29 | 15.87468 | 103.57774 | 36882 ft | 436 kts | 114° |
| 2026-04-18 05:29 | 15.84744 | 103.63395 | 36881 ft | 437 kts | 114° |
| 2026-04-18 05:30 | 15.81993 | 103.69068 | 36886 ft | 437 kts | 115° |
| 2026-04-18 05:30 | 15.79260 | 103.74703 | 36885 ft | 437 kts | 115° |
| 2026-04-18 05:31 | 15.76548 | 103.80287 | 36885 ft | 437 kts | 115° |
| 2026-04-18 05:31 | 15.73796 | 103.85949 | 36885 ft | 436 kts | 115° |
| 2026-04-18 05:32 | 15.71053 | 103.91588 | 36885 ft | 437 kts | 115° |
| 2026-04-18 05:32 | 15.68325 | 103.97193 | 36885 ft | 437 kts | 115° |
| 2026-04-18 05:33 | 15.65573 | 104.02840 | 36884 ft | 437 kts | 115° |
| 2026-04-18 05:33 | 15.62836 | 104.08455 | 36884 ft | 437 kts | 115° |
| 2026-04-18 05:34 | 15.60088 | 104.14086 | 36884 ft | 436 kts | 115° |
| 2026-04-18 05:34 | 15.57353 | 104.19687 | 36884 ft | 437 kts | 115° |
| 2026-04-18 05:35 | 15.54594 | 104.25332 | 36884 ft | 437 kts | 115° |
| 2026-04-18 05:35 | 15.51840 | 104.30963 | 36883 ft | 437 kts | 115° |
| 2026-04-18 05:36 | 15.49101 | 104.36557 | 36883 ft | 437 kts | 115° |
| 2026-04-18 05:36 | 15.46347 | 104.42180 | 36883 ft | 437 kts | 115° |
| 2026-04-18 05:37 | 15.43591 | 104.47800 | 36882 ft | 437 kts | 115° |
| 2026-04-18 05:37 | 15.40840 | 104.53410 | 36883 ft | 437 kts | 115° |
| 2026-04-18 05:38 | 15.38082 | 104.59026 | 36882 ft | 437 kts | 115° |
| 2026-04-18 05:38 | 15.35314 | 104.64658 | 36882 ft | 437 kts | 115° |
| 2026-04-18 05:39 | 15.32551 | 104.70280 | 36886 ft | 437 kts | 115° |
| 2026-04-18 05:39 | 15.29793 | 104.75884 | 36886 ft | 437 kts | 115° |
| 2026-04-18 05:40 | 15.27023 | 104.81510 | 36886 ft | 437 kts | 115° |
| 2026-04-18 05:40 | 15.24783 | 104.87307 | 36888 ft | 433 kts | 101° |
| 2026-04-18 05:41 | 15.24198 | 104.93521 | 36887 ft | 430 kts | 93° |
| 2026-04-18 05:41 | 15.23831 | 104.99670 | 36885 ft | 429 kts | 93° |
| 2026-04-18 05:42 | 15.23489 | 105.05851 | 36884 ft | 430 kts | 94° |
| 2026-04-18 05:42 | 15.23147 | 105.12075 | 36883 ft | 432 kts | 95° |
| 2026-04-18 05:43 | 15.22800 | 105.18294 | 36883 ft | 432 kts | 95° |
| 2026-04-18 05:43 | 15.22456 | 105.24518 | 36882 ft | 432 kts | 95° |
| 2026-04-18 05:44 | 15.22109 | 105.30766 | 36882 ft | 432 kts | 95° |
| 2026-04-18 05:44 | 15.21765 | 105.36941 | 36882 ft | 432 kts | 95° |
| 2026-04-18 05:45 | 15.21416 | 105.43179 | 36882 ft | 432 kts | 95° |
| 2026-04-18 05:45 | 15.21065 | 105.49416 | 36882 ft | 432 kts | 95° |
| 2026-04-18 05:46 | 15.20713 | 105.55631 | 36882 ft | 432 kts | 95° |
| 2026-04-18 05:46 | 15.20359 | 105.61871 | 36881 ft | 432 kts | 95° |
| 2026-04-18 05:47 | 15.20004 | 105.68079 | 36886 ft | 432 kts | 95° |
| 2026-04-18 05:47 | 15.19099 | 105.74192 | 36886 ft | 429 kts | 109° |
| 2026-04-18 05:48 | 15.16547 | 105.79781 | 36887 ft | 429 kts | 118° |
| 2026-04-18 05:48 | 15.13764 | 105.85281 | 36884 ft | 429 kts | 118° |
| 2026-04-18 05:49 | 15.10974 | 105.90717 | 36884 ft | 429 kts | 118° |
| 2026-04-18 05:49 | 15.08173 | 105.96156 | 36884 ft | 429 kts | 118° |
| 2026-04-18 05:50 | 15.05355 | 106.01623 | 36883 ft | 429 kts | 118° |
| 2026-04-18 05:50 | 15.02545 | 106.07069 | 36883 ft | 428 kts | 118° |
| 2026-04-18 05:51 | 14.99745 | 106.12491 | 36882 ft | 425 kts | 118° |
| 2026-04-18 05:51 | 14.96962 | 106.17876 | 36882 ft | 423 kts | 118° |
| 2026-04-18 05:52 | 14.94187 | 106.23241 | 36881 ft | 420 kts | 118° |
| 2026-04-18 05:52 | 14.91432 | 106.28567 | 36881 ft | 418 kts | 117° |
| 2026-04-18 05:53 | 14.88679 | 106.33881 | 36883 ft | 416 kts | 117° |
| 2026-04-18 05:53 | 14.85963 | 106.39127 | 36882 ft | 416 kts | 117° |
| 2026-04-18 05:54 | 14.83226 | 106.44410 | 36882 ft | 416 kts | 117° |
| 2026-04-18 05:54 | 14.80480 | 106.49700 | 36881 ft | 416 kts | 117° |
| 2026-04-18 05:55 | 14.77732 | 106.54994 | 36881 ft | 416 kts | 117° |
| 2026-04-18 05:55 | 14.74998 | 106.60255 | 36880 ft | 416 kts | 117° |
| 2026-04-18 05:56 | 14.72256 | 106.65530 | 36882 ft | 416 kts | 117° |
| 2026-04-18 05:56 | 14.69515 | 106.70798 | 36887 ft | 416 kts | 117° |
| 2026-04-18 05:57 | 14.65397 | 106.78707 | 36887 ft | 416 kts | 117° |
| 2026-04-18 05:58 | 14.62645 | 106.83985 | 36886 ft | 416 kts | 117° |
| 2026-04-18 05:58 | 14.59890 | 106.89266 | 36888 ft | 418 kts | 117° |
| 2026-04-18 05:59 | 14.57135 | 106.94545 | 36888 ft | 420 kts | 117° |
| 2026-04-18 05:59 | 14.54363 | 106.99857 | 36887 ft | 421 kts | 117° |
| 2026-04-18 06:00 | 14.51579 | 107.05181 | 36886 ft | 422 kts | 117° |
| 2026-04-18 06:00 | 14.48768 | 107.10558 | 36885 ft | 422 kts | 117° |
| 2026-04-18 06:01 | 14.45980 | 107.15883 | 36884 ft | 423 kts | 117° |
| 2026-04-18 06:01 | 14.43180 | 107.21231 | 36885 ft | 422 kts | 117° |
| 2026-04-18 06:02 | 14.40382 | 107.26572 | 36883 ft | 422 kts | 117° |
| 2026-04-18 06:02 | 14.37581 | 107.31911 | 36886 ft | 422 kts | 117° |
| 2026-04-18 06:03 | 14.34777 | 107.37253 | 36899 ft | 423 kts | 117° |
| 2026-04-18 06:03 | 14.31985 | 107.42585 | 36912 ft | 422 kts | 117° |
| 2026-04-18 06:04 | 14.29186 | 107.47938 | 36848 ft | 422 kts | 117° |
| 2026-04-18 06:04 | 14.26403 | 107.53265 | 36852 ft | 421 kts | 117° |
| 2026-04-18 06:05 | 14.23611 | 107.58602 | 36853 ft | 422 kts | 117° |
| 2026-04-18 06:05 | 14.20825 | 107.63927 | 36852 ft | 422 kts | 117° |
| 2026-04-18 06:06 | 14.18027 | 107.69267 | 36858 ft | 422 kts | 117° |
| 2026-04-18 06:06 | 14.15245 | 107.74572 | 36859 ft | 422 kts | 117° |
| 2026-04-18 06:07 | 14.12447 | 107.79908 | 36860 ft | 421 kts | 117° |
| 2026-04-18 06:07 | 14.09637 | 107.85261 | 36859 ft | 422 kts | 117° |
| 2026-04-18 06:08 | 14.06843 | 107.90581 | 36858 ft | 422 kts | 117° |
| 2026-04-18 06:08 | 14.04036 | 107.95920 | 36858 ft | 423 kts | 117° |
| 2026-04-18 06:09 | 14.01422 | 108.01318 | 36855 ft | 421 kts | 108° |
| 2026-04-18 06:09 | 14.00427 | 108.07231 | 36863 ft | 420 kts | 92° |
| 2026-04-18 06:10 | 14.00111 | 108.13270 | 36855 ft | 421 kts | 93° |
| 2026-04-18 06:10 | 13.99821 | 108.19313 | 36856 ft | 421 kts | 93° |
| 2026-04-18 06:11 | 13.99538 | 108.25340 | 36857 ft | 421 kts | 93° |
| 2026-04-18 06:11 | 13.99255 | 108.31361 | 36856 ft | 420 kts | 93° |
| 2026-04-18 06:12 | 13.98974 | 108.37354 | 36856 ft | 421 kts | 93° |
| 2026-04-18 06:12 | 13.98690 | 108.43374 | 36855 ft | 420 kts | 93° |
| 2026-04-18 06:13 | 13.98403 | 108.49404 | 36850 ft | 420 kts | 93° |
| 2026-04-18 06:13 | 13.98116 | 108.55410 | 36850 ft | 420 kts | 93° |
| 2026-04-18 06:14 | 13.97827 | 108.61404 | 36853 ft | 420 kts | 93° |
| 2026-04-18 06:14 | 13.97536 | 108.67459 | 36861 ft | 421 kts | 93° |
| 2026-04-18 06:15 | 13.97244 | 108.73461 | 36861 ft | 420 kts | 93° |
| 2026-04-18 06:15 | 13.96951 | 108.79482 | 36858 ft | 421 kts | 93° |
| 2026-04-18 06:16 | 13.96656 | 108.85493 | 36861 ft | 420 kts | 93° |
| 2026-04-18 06:16 | 13.96239 | 108.91533 | 36855 ft | 420 kts | 99° |
| 2026-04-18 06:17 | 13.94274 | 108.97172 | 36861 ft | 423 kts | 119° |
| 2026-04-18 06:17 | 13.90450 | 109.01823 | 36861 ft | 431 kts | 138° |
| 2026-04-18 06:18 | 13.85229 | 109.04894 | 36861 ft | 439 kts | 158° |
| 2026-04-18 06:18 | 13.79164 | 109.06001 | 36862 ft | 447 kts | 175° |
| 2026-04-18 06:19 | 13.72957 | 109.06317 | 36900 ft | 446 kts | 172° |
| 2026-04-18 06:19 | 13.66764 | 109.06821 | 36911 ft | 446 kts | 172° |
| 2026-04-18 06:20 | 13.60584 | 109.07355 | 36910 ft | 446 kts | 172° |
| 2026-04-18 06:20 | 13.54390 | 109.07896 | 36913 ft | 446 kts | 172° |
| 2026-04-18 06:21 | 13.48176 | 109.08440 | 36912 ft | 446 kts | 172° |
| 2026-04-18 06:21 | 13.42160 | 109.08964 | 36895 ft | 425 kts | 172° |
| 2026-04-18 06:22 | 13.36273 | 109.09481 | 36905 ft | 428 kts | 172° |
| 2026-04-18 06:22 | 13.33303 | 109.09743 | 36624 ft | 431 kts | 172° |
| 2026-04-18 06:22 | 13.30283 | 109.10008 | 36269 ft | 431 kts | 171° |
| 2026-04-18 06:22 | 13.27367 | 109.10489 | 35898 ft | 426 kts | 164° |
| 2026-04-18 06:23 | 13.24469 | 109.11176 | 35523 ft | 426 kts | 164° |
| 2026-04-18 06:23 | 13.21574 | 109.11835 | 35150 ft | 427 kts | 164° |
| 2026-04-18 06:23 | 13.18657 | 109.12518 | 34778 ft | 428 kts | 164° |
| 2026-04-18 06:23 | 13.15746 | 109.13200 | 34403 ft | 430 kts | 164° |
| 2026-04-18 06:24 | 13.12821 | 109.13886 | 34031 ft | 431 kts | 164° |
| 2026-04-18 06:24 | 13.09933 | 109.14562 | 33661 ft | 431 kts | 164° |
| 2026-04-18 06:24 | 13.06975 | 109.15257 | 33259 ft | 431 kts | 164° |
| 2026-04-18 06:24 | 13.04063 | 109.15941 | 32834 ft | 429 kts | 164° |
| 2026-04-18 06:25 | 13.01183 | 109.16617 | 32409 ft | 425 kts | 164° |
| 2026-04-18 06:25 | 12.98308 | 109.17291 | 31977 ft | 420 kts | 164° |
| 2026-04-18 06:25 | 12.95470 | 109.17957 | 31547 ft | 416 kts | 165° |
| 2026-04-18 06:25 | 12.92679 | 109.18613 | 31115 ft | 412 kts | 165° |
| 2026-04-18 06:26 | 12.89865 | 109.19271 | 30676 ft | 408 kts | 165° |
| 2026-04-18 06:26 | 12.87099 | 109.19920 | 30246 ft | 404 kts | 165° |
| 2026-04-18 06:26 | 12.84405 | 109.20551 | 29823 ft | 400 kts | 165° |
| 2026-04-18 06:26 | 12.81674 | 109.21191 | 29392 ft | 397 kts | 165° |
| 2026-04-18 06:27 | 12.78979 | 109.21823 | 28961 ft | 393 kts | 165° |
| 2026-04-18 06:27 | 12.76343 | 109.22440 | 28536 ft | 390 kts | 165° |
| 2026-04-18 06:27 | 12.73710 | 109.23058 | 28109 ft | 387 kts | 165° |
| 2026-04-18 06:27 | 12.71095 | 109.23669 | 27680 ft | 383 kts | 166° |
| 2026-04-18 06:28 | 12.68518 | 109.24273 | 27255 ft | 380 kts | 166° |
| 2026-04-18 06:28 | 12.65958 | 109.24872 | 26829 ft | 377 kts | 166° |
| 2026-04-18 06:28 | 12.63414 | 109.25467 | 26402 ft | 375 kts | 166° |
| 2026-04-18 06:28 | 12.60859 | 109.26065 | 25970 ft | 372 kts | 166° |
| 2026-04-18 06:29 | 12.58354 | 109.26650 | 25544 ft | 369 kts | 166° |
| 2026-04-18 06:29 | 12.55872 | 109.27231 | 25118 ft | 367 kts | 166° |
| 2026-04-18 06:29 | 12.53393 | 109.27810 | 24686 ft | 364 kts | 166° |
| 2026-04-18 06:29 | 12.50921 | 109.28388 | 24089 ft | 367 kts | 167° |
| 2026-04-18 06:30 | 12.48413 | 109.28975 | 23465 ft | 370 kts | 167° |
| 2026-04-18 06:30 | 12.45914 | 109.29559 | 22849 ft | 373 kts | 167° |
| 2026-04-18 06:30 | 12.43397 | 109.30147 | 22232 ft | 375 kts | 167° |
| 2026-04-18 06:30 | 12.40847 | 109.30743 | 21610 ft | 377 kts | 167° |
| 2026-04-18 06:31 | 12.38302 | 109.31337 | 20992 ft | 379 kts | 167° |
| 2026-04-18 06:31 | 12.35702 | 109.31943 | 20363 ft | 381 kts | 167° |
| 2026-04-18 06:31 | 12.33124 | 109.32523 | 19743 ft | 382 kts | 169° |
| 2026-04-18 06:31 | 12.30524 | 109.33061 | 19122 ft | 384 kts | 169° |
| 2026-04-18 06:32 | 12.27909 | 109.33613 | 18498 ft | 385 kts | 169° |
| 2026-04-18 06:32 | 12.25768 | 109.34060 | 17988 ft | 386 kts | 169° |
| 2026-04-18 06:32 | 12.23140 | 109.34611 | 17364 ft | 387 kts | 169° |
| 2026-04-18 06:32 | 12.20500 | 109.35164 | 16737 ft | 388 kts | 169° |
| 2026-04-18 06:33 | 12.17852 | 109.35719 | 16087 ft | 389 kts | 169° |
| 2026-04-18 06:33 | 12.15220 | 109.36270 | 15441 ft | 390 kts | 169° |
| 2026-04-18 06:33 | 12.12577 | 109.36823 | 14783 ft | 386 kts | 170° |
| 2026-04-18 06:33 | 12.10025 | 109.37360 | 14086 ft | 361 kts | 170° |
| 2026-04-18 06:34 | 12.07652 | 109.37856 | 13419 ft | 341 kts | 170° |
| 2026-04-18 06:34 | 12.05352 | 109.38154 | 12743 ft | 322 kts | 182° |
| 2026-04-18 06:34 | 12.03217 | 109.37800 | 12085 ft | 307 kts | 198° |
| 2026-04-18 06:34 | 12.01243 | 109.37100 | 11431 ft | 296 kts | 199° |
| 2026-04-18 06:35 | 11.99329 | 109.36442 | 10770 ft | 287 kts | 200° |
| 2026-04-18 06:35 | 11.97491 | 109.35775 | 10115 ft | 280 kts | 200° |
| 2026-04-18 06:35 | 11.95678 | 109.35117 | 9454 ft | 273 kts | 199° |
| 2026-04-18 06:35 | 11.93899 | 109.34462 | 8791 ft | 268 kts | 199° |
| 2026-04-18 06:36 | 11.92168 | 109.33830 | 8153 ft | 264 kts | 198° |
| 2026-04-18 06:36 | 11.90455 | 109.33198 | 7637 ft | 264 kts | 198° |
| 2026-04-18 06:36 | 11.88701 | 109.32558 | 7118 ft | 270 kts | 198° |
| 2026-04-18 06:36 | 11.86954 | 109.31918 | 6561 ft | 265 kts | 198° |
| 2026-04-18 06:37 | 11.85249 | 109.31287 | 5997 ft | 258 kts | 198° |
| 2026-04-18 06:37 | 11.83585 | 109.30673 | 5439 ft | 252 kts | 198° |
| 2026-04-18 06:37 | 11.81958 | 109.30077 | 4884 ft | 247 kts | 198° |
| 2026-04-18 06:37 | 11.80481 | 109.29238 | 4326 ft | 247 kts | 220° |
| 2026-04-18 06:38 | 11.79581 | 109.27781 | 3894 ft | 244 kts | 251° |
| 2026-04-18 06:38 | 11.79544 | 109.26053 | 3598 ft | 250 kts | 283° |
| 2026-04-18 06:38 | 11.80300 | 109.24453 | 3407 ft | 251 kts | 300° |
| 2026-04-18 06:38 | 11.81144 | 109.22903 | 3156 ft | 248 kts | 295° |
| 2026-04-18 06:39 | 11.81923 | 109.21323 | 2902 ft | 248 kts | 296° |
| 2026-04-18 06:39 | 11.82692 | 109.19750 | 2655 ft | 247 kts | 296° |
| 2026-04-18 06:39 | 11.83678 | 109.18318 | 2566 ft | 255 kts | 320° |
| 2026-04-18 06:39 | 11.85297 | 109.17451 | 2590 ft | 263 kts | 348° |
| 2026-04-18 06:40 | 11.87061 | 109.17426 | 2567 ft | 255 kts | 16° |
| 2026-04-18 06:40 | 11.88726 | 109.18057 | 2445 ft | 260 kts | 24° |
| 2026-04-18 06:40 | 11.90417 | 109.18665 | 2026 ft | 258 kts | 21° |
| 2026-04-18 06:40 | 11.92090 | 109.19250 | 1613 ft | 247 kts | 21° |
| 2026-04-18 06:41 | 11.93647 | 109.19788 | 1255 ft | 220 kts | 21° |
| 2026-04-18 06:41 | 11.94991 | 109.20253 | 969 ft | 192 kts | 22° |
| 2026-04-18 06:41 | 11.96172 | 109.20666 | 646 ft | 168 kts | 22° |
| 2026-04-18 06:41 | 11.97220 | 109.21024 | 335 ft | 150 kts | 23° |
| 2026-04-18 06:42 | 11.98174 | 109.21354 | 127 ft | 140 kts | 24° |
| 2026-04-18 06:42 | 11.99063 | 109.21666 | 60 ft | 128 kts | 23° |
| 2026-04-18 06:42 | 11.99797 | 109.21929 | 58 ft | 81 kts | 24° |
| 2026-04-18 06:42 | 12.00213 | 109.22057 | 57 ft | 55 kts | 2° |
| 2026-04-18 06:43 | 12.00526 | 109.22163 | 57 ft | 42 kts | 25° |
| 2026-04-18 06:43 | 12.00785 | 109.22269 | 57 ft | 38 kts | 20° |
| 2026-04-18 06:43 | 12.01020 | 109.22354 | 57 ft | 21 kts | 20° |
| 2026-04-18 06:43 | 12.01103 | 109.22367 | 57 ft | 7 kts | 326° |
| 2026-04-18 06:44 | 12.01132 | 109.22317 | 57 ft | 9 kts | 291° |
| 2026-04-18 06:44 | 12.01156 | 109.22244 | 57 ft | 12 kts | 287° |
| 2026-04-18 06:44 | 12.01186 | 109.22152 | 57 ft | 14 kts | 287° |
| 2026-04-18 06:44 | 12.01220 | 109.22049 | 57 ft | 15 kts | 288° |
| 2026-04-18 06:45 | 12.01214 | 109.21995 | 57 ft | 7 kts | 224° |
| 2026-04-18 06:45 | 12.01174 | 109.21978 | 57 ft | 7 kts | 196° |
| 2026-04-18 06:45 | 12.01137 | 109.21953 | 57 ft | 5 kts | 255° |
| 2026-04-18 06:45 | 12.01146 | 109.21899 | 57 ft | 10 kts | 291° |
| 2026-04-18 06:46 | 12.01165 | 109.21846 | 57 ft | 4 kts | 289° |
| 2026-04-18 06:46 | 12.01169 | 109.21834 | 57 ft | 0 kts | 289° |